Latest Weather Observations for Mackay Airport

IDQ60801

Issued at 11:13 pm EST Tuesday 21 May 2024 (issued every 10 minutes, with the page automatically refreshed every 10 minutes)

About weather observations | Map of weather stations | Latest weather observations for QLD | Other Formats
Station Details ID: 033045 Name: MACKAY AERO Lat: -21.17 Lon: 149.18 Height: 5.3 m
Data from the previous 72 hours. | See also: Recent months at Mackay Airport
Date/Time
EST
Temp
°C
App
Temp
°C
Dew
Point
°C
Rel
Hum
%
Delta-T
°C
Wind Press
QNH
hPa
Press
MSL
hPa
Rain since
9am
mm
Dir  Spd
km/h
Gust
km/h
Spd
kts
Gust
kts
21/11:00pm 16.2 15.1 14.4 89 1.0 SSW 13 15 7 8 1020.0 1020.0 0.0
21/10:30pm 16.1 14.9 14.1 88 1.1 SSW 13 13 7 7 1020.0 1020.0 0.0
21/10:00pm 16.0 14.8 14.0 88 1.1 SSW 13 15 7 8 1019.9 1019.9 0.0
21/09:30pm 17.0 16.4 14.5 85 1.4 S 11 13 6 7 1020.1 1020.1 0.0
21/09:00pm 17.4 17.1 14.5 83 1.7 S 9 11 5 6 1020.0 1020.0 0.0
21/08:30pm 19.5 18.7 15.0 75 2.6 SSE 13 17 7 9 1020.0 1020.0 0.0
21/08:00pm 19.6 18.1 14.2 71 3.1 SSE 15 19 8 10 1019.9 1019.9 0.0
21/07:30pm 19.7 18.1 13.9 69 3.3 SSE 15 17 8 9 1019.7 1019.7 0.0
21/07:00pm 20.0 18.5 14.1 69 3.4 SSE 15 19 8 10 1019.4 1019.4 0.0
21/06:30pm 19.4 18.3 14.2 72 3.0 SE 13 15 7 8 1019.0 1019.0 0.0
21/06:00pm 20.4 19.2 14.1 67 3.6 SSE 13 17 7 9 1018.6 1018.6 0.0
21/05:30pm 21.5 19.7 14.4 64 4.2 SSE 17 20 9 11 1018.6 1018.6 0.0
21/05:00pm 22.0 20.5 15.4 66 3.9 SE 17 22 9 12 1018.4 1018.4 0.0
21/04:30pm 22.8 20.8 14.9 61 4.7 SE 19 24 10 13 1018.0 1018.0 0.0
21/04:00pm 22.8 20.2 14.9 61 4.7 SE 22 28 12 15 1017.7 1017.7 0.0
21/03:30pm 23.9 20.9 14.9 57 5.4 SE 24 28 13 15 1017.5 1017.5 0.0
21/03:00pm 24.1 20.8 15.1 57 5.4 SE 26 32 14 17 1017.3 1017.3 0.0
21/02:30pm 24.0 20.8 15.2 58 5.3 SE 26 33 14 18 1017.3 1017.3 0.0
21/02:00pm 23.8 19.9 14.5 56 5.5 SE 28 35 15 19 1017.5 1017.5 0.0
21/01:30pm 24.3 21.0 15.0 56 5.6 SE 26 32 14 17 1017.6 1017.6 0.0
21/01:00pm 24.3 20.7 14.1 53 6.0 SE 26 35 14 19 1018.0 1018.0 0.0
21/12:30pm 24.2 20.1 13.7 52 6.1 SSE 28 33 15 18 1018.4 1018.4 0.0
21/12:00pm 23.9 20.0 13.4 51 6.1 SE 26 35 14 19 1018.8 1018.8 0.0
21/11:30am 23.8 21.2 14.8 57 5.4 SE 22 30 12 16 1019.1 1019.1 0.0
21/11:00am 22.9 18.9 13.1 54 5.6 SE 26 32 14 17 1019.4 1019.4 0.0
21/10:30am 22.6 21.2 14.4 60 4.8 SSE 15 26 8 14 1019.9 1019.9 0.0
21/10:00am 19.8 18.3 13.0 65 3.8 S 13 17 7 9 1020.1 1020.1 0.0
21/09:30am 18.7 18.0 13.1 70 3.2 SW 9 15 5 8 1020.2 1020.2 0.0
21/09:00am 16.6 15.1 12.0 74 2.5 SW 11 15 6 8 1020.1 1020.1 0.0
21/08:30am 16.1 15.5 12.3 78 2.1 WSW 7 11 4 6 1020.2 1020.2 0.0
21/08:00am 15.0 13.9 10.8 76 2.2 W 7 11 4 6 1020.0 1020.0 0.0
21/07:30am 13.5 12.6 10.5 82 1.6 W 6 9 3 5 1019.8 1019.8 0.0
21/07:00am 10.7 9.4 9.9 95 0.4 W 7 7 4 4 1019.6 1019.6 0.0
21/06:30am 9.9 8.4 9.0 94 0.4 W 7 9 4 5 1019.2 1019.2 0.0
21/06:00am 9.7 7.8 8.9 95 0.4 WSW 9 13 5 7 1018.9 1018.9 0.0
21/05:30am 9.7 8.1 8.9 95 0.4 WSW 7 9 4 5 1018.8 1018.8 0.0
21/05:00am 10.2 8.8 9.4 95 0.4 WSW 7 9 4 5 1018.4 1018.4 0.0
21/04:30am 10.0 8.1 9.1 94 0.4 WSW 9 9 5 5 1018.3 1018.3 0.0
21/04:00am 10.7 8.2 9.8 94 0.5 WSW 13 13 7 7 1018.4 1018.4 0.0
21/03:30am 11.5 9.1 10.2 92 0.7 WSW 13 15 7 8 1018.5 1018.5 0.0
21/03:00am 10.7 8.3 9.9 95 0.4 WSW 13 13 7 7 1018.5 1018.5 0.0
21/02:30am 10.7 8.6 9.8 94 0.5 SW 11 13 6 7 1018.6 1018.6 0.0
21/02:00am 11.2 9.5 10.0 92 0.6 WSW 9 11 5 6 1018.9 1018.9 0.0
21/01:30am 11.9 9.6 10.5 91 0.7 WSW 13 15 7 8 1019.3 1019.3 0.0
21/01:00am 12.1 9.9 10.7 91 0.7 WSW 13 15 7 8 1019.4 1019.4 0.0
21/12:30am 12.2 10.8 10.8 91 0.7 WSW 9 11 5 6 1019.6 1019.6 0.0
21/12:00am 12.0 10.4 10.2 89 0.9 WSW 9 11 5 6 1019.7 1019.7 0.0
 
Date/Time
EST
Temp
°C
App
Temp
°C
Dew
Point
°C
Rel
Hum
%
Delta-T
°C
Wind Press
QNH
hPa
Press
MSL
hPa
Rain since
9am
mm
Dir  Spd
km/h
Gust
km/h
Spd
kts
Gust
kts
20/11:30pm 12.5 11.0 10.4 87 1.1 WSW 9 11 5 6 1019.8 1019.8 0.0
20/11:00pm 13.2 11.8 10.9 86 1.2 WSW 9 9 5 5 1020.1 1020.1 0.0
20/10:30pm 12.9 11.1 10.8 87 1.1 SW 11 13 6 7 1019.9 1019.9 0.0
20/10:00pm 13.4 11.0 11.5 88 1.0 SSW 15 17 8 9 1019.9 1019.9 0.0
20/09:30pm 13.2 11.3 10.6 84 1.4 SW 11 13 6 7 1020.0 1020.0 0.0
20/09:00pm 14.1 12.1 11.4 84 1.4 SW 13 15 7 8 1020.1 1020.1 0.0
20/08:30pm 15.1 13.9 11.5 79 1.9 SSW 9 13 5 7 1019.7 1019.7 0.0
20/08:00pm 15.5 13.8 11.1 75 2.3 SSW 11 11 6 6 1019.5 1019.5 0.0
20/07:30pm 16.6 15.6 10.9 69 3.1 WSW 7 9 4 5 1019.4 1019.4 0.0
20/07:00pm 16.5 14.9 11.6 73 2.6 S 11 13 6 7 1018.7 1018.7 0.0
20/06:30pm 17.8 16.6 11.6 67 3.4 SSE 9 13 5 7 1018.3 1018.3 0.0
20/06:00pm 18.6 17.3 11.2 62 4.0 SE 9 13 5 7 1018.0 1018.0 0.0
20/05:30pm 19.9 18.0 11.7 59 4.5 SE 13 17 7 9 1017.8 1017.8 0.0
20/05:00pm 21.0 18.1 11.1 53 5.4 ESE 17 22 9 12 1017.2 1017.2 0.0
20/04:30pm 21.9 18.3 10.7 49 6.1 ESE 20 26 11 14 1017.1 1017.1 0.0
20/04:00pm 22.3 18.4 10.8 48 6.3 ESE 22 30 12 16 1016.7 1016.7 0.0
20/03:30pm 22.1 18.1 11.8 52 5.8 ESE 24 33 13 18 1016.7 1016.7 0.0
20/03:00pm 22.3 17.5 11.7 51 5.9 ESE 28 33 15 18 1016.6 1016.6 0.0
20/02:30pm 22.4 17.6 11.8 51 6.0 ESE 28 35 15 19 1016.6 1016.6 0.0
20/02:00pm 22.4 16.5 10.5 47 6.5 E 32 37 17 20 1016.6 1016.6 0.0
20/01:30pm 22.2 16.5 8.3 41 7.3 E 28 35 15 19 1016.9 1016.9 0.0
20/01:00pm 22.7 16.9 8.0 39 7.7 ESE 28 35 15 19 1017.4 1017.4 0.0
20/12:30pm 23.4 17.6 9.4 41 7.6 ESE 30 39 16 21 1017.7 1017.7 0.0
20/12:00pm 22.7 18.2 8.4 40 7.5 SSE 22 30 12 16 1018.3 1018.3 0.0
20/11:30am 22.4 17.4 8.1 40 7.5 S 24 32 13 17 1018.6 1018.6 0.0
20/11:00am 21.6 16.6 8.1 42 7.0 SSE 24 30 13 16 1019.1 1019.1 0.0
20/10:30am 21.2 16.0 7.4 41 7.1 SSE 24 33 13 18 1019.5 1019.5 0.0
20/10:00am 20.5 16.2 7.8 44 6.5 SE 20 28 11 15 1019.8 1019.8 0.0
20/09:30am 19.7 15.3 7.4 45 6.3 SSE 20 26 11 14 1019.8 1019.8 0.0
20/09:00am 19.3 15.1 8.3 49 5.7 SSE 20 28 11 15 1019.9 1019.9 0.0
20/08:30am 16.8 15.4 9.7 63 3.7 S 7 13 4 7 1019.6 1019.6 0.0
20/08:00am 14.2 11.8 10.2 77 2.1 SW 13 15 7 8 1019.2 1019.2 0.0
20/07:30am 13.7 12.1 10.1 79 1.9 SSW 9 13 5 7 1019.0 1019.0 0.0
20/07:00am 12.9 10.3 9.4 79 1.8 SSW 13 17 7 9 1018.7 1018.7 0.0
20/06:30am 13.1 11.0 9.7 80 1.7 SSW 11 13 6 7 1018.4 1018.4 0.0
20/06:00am 12.0 10.6 8.7 80 1.6 SW 6 7 3 4 1018.3 1018.3 0.0
20/05:30am 11.8 10.4 8.8 82 1.5 WSW 6 9 3 5 1017.7 1017.7 0.0
20/05:00am 11.7 8.9 8.6 81 1.5 SW 13 15 7 8 1017.6 1017.6 0.0
20/04:30am 11.0 8.9 8.2 83 1.4 SW 9 11 5 6 1017.5 1017.5 0.0
20/04:00am 10.4 7.5 8.2 86 1.1 SSW 13 13 7 7 1017.5 1017.5 0.0
20/03:30am 10.7 7.8 8.3 85 1.2 SW 13 15 7 8 1017.6 1017.6 0.0
20/03:00am 10.3 7.8 8.2 87 1.0 WSW 11 13 6 7 1017.6 1017.6 0.0
20/02:30am 11.2 9.6 8.6 84 1.3 WSW 7 13 4 7 1017.9 1017.9 0.0
20/02:00am 10.0 7.5 8.4 90 0.8 WSW 11 15 6 8 1017.9 1017.9 0.0
20/01:30am 10.4 8.8 8.7 89 0.8 WSW 7 11 4 6 1018.0 1018.0 0.0
20/01:00am 10.9 9.4 9.2 89 0.8 WSW 7 7 4 4 1018.1 1018.1 0.0
20/12:30am 10.8 8.9 9.2 90 0.8 WSW 9 11 5 6 1018.2 1018.2 0.0
20/12:00am 11.1 9.2 9.2 88 0.9 WSW 9 11 5 6 1018.3 1018.3 0.0
 
Date/Time
EST
Temp
°C
App
Temp
°C
Dew
Point
°C
Rel
Hum
%
Delta-T
°C
Wind Press
QNH
hPa
Press
MSL
hPa
Rain since
9am
mm
Dir  Spd
km/h
Gust
km/h
Spd
kts
Gust
kts
19/11:30pm 11.5 9.3 9.4 87 1.1 WSW 11 13 6 7 1018.4 1018.4 0.0
19/11:00pm 11.7 9.9 9.3 85 1.2 SW 9 11 5 6 1018.4 1018.4 0.0
19/10:30pm 11.1 8.4 9.0 87 1.0 SW 13 15 7 8 1018.3 1018.3 0.0
19/10:00pm 11.7 9.4 9.1 84 1.3 SW 11 15 6 8 1018.3 1018.3 0.0
19/09:30pm 12.2 9.3 9.6 84 1.3 SSW 15 15 8 8 1018.4 1018.4 0.0
19/09:00pm 12.4 9.8 9.4 82 1.5 SSW 13 13 7 7 1018.3 1018.3 0.0
19/08:30pm 12.0 9.8 9.4 84 1.3 SW 11 13 6 7 1018.2 1018.2 0.0
19/08:00pm 13.2 11.0 9.3 77 2.0 SSW 11 13 6 7 1018.0 1018.0 0.0
19/07:30pm 14.7 12.5 9.5 71 2.7 SSW 11 13 6 7 1017.6 1017.6 0.0
19/07:00pm 16.1 14.4 9.8 66 3.3 SSE 9 11 5 6 1017.0 1017.0 0.0
19/06:30pm 17.5 15.0 9.7 60 4.1 SSE 13 15 7 8 1016.3 1016.3 0.0
19/06:00pm 17.6 15.0 9.2 58 4.4 SE 13 17 7 9 1016.0 1016.0 0.0
19/05:30pm 18.2 15.1 9.0 55 4.8 SE 15 17 8 9 1015.7 1015.7 0.0
19/05:00pm 19.4 16.2 8.4 49 5.7 SE 15 19 8 10 1015.6 1015.6 0.0
19/04:30pm 20.7 16.8 7.3 42 6.9 SE 17 19 9 10 1015.4 1015.4 0.0
19/04:00pm 21.6 17.6 5.1 34 8.1 SSE 15 22 8 12 1015.2 1015.2 0.0
19/03:30pm 21.5 17.6 5.4 35 8.0 SE 15 22 8 12 1015.0 1015.0 0.0
19/03:00pm 20.8 16.0 4.4 34 7.9 SE 19 24 10 13 1014.9 1014.9 0.0
19/02:30pm 21.2 16.2 4.7 34 8.1 S 20 30 11 16 1014.9 1014.9 0.0
19/02:00pm 22.2 16.6 5.2 33 8.4 SSE 24 32 13 17 1014.9 1014.9 0.0
19/01:30pm 21.9 16.2 3.1 29 9.0 SE 22 30 12 16 1015.2 1015.2 0.0
19/01:00pm 22.0 16.7 5.0 33 8.4 SSE 22 32 12 17 1015.4 1015.4 0.0
19/12:30pm 21.8 15.8 3.5 30 8.8 SSE 24 32 13 17 1016.0 1016.0 0.0
19/12:00pm 21.1 14.8 3.8 32 8.3 SSE 26 37 14 20 1016.5 1016.5 0.0
19/11:30am 20.2 14.8 4.3 35 7.7 SSE 22 32 12 17 1017.1 1017.1 0.0
19/11:00am 20.4 14.8 5.2 37 7.4 SSE 24 33 13 18 1017.5 1017.5 0.0
19/10:30am 19.4 13.1 4.0 36 7.3 SSE 26 33 14 18 1017.6 1017.6 0.0
19/10:00am 19.0 14.3 5.1 40 6.7 S 19 24 10 13 1017.7 1017.7 0.0
19/09:30am 17.8 13.0 4.4 41 6.4 S 19 26 10 14 1018.0 1018.0 0.0
19/09:00am 16.6 11.8 4.6 45 5.6 SSW 19 26 10 14 1018.1 1018.1 0.0
19/08:30am 16.1 12.2 7.1 55 4.5 S 17 20 9 11 1018.1 1018.1 0.0
19/08:00am 15.1 12.2 8.3 64 3.4 S 13 20 7 11 1017.9 1017.9 0.0
19/07:30am 13.8 11.5 10.6 81 1.7 SSW 13 15 7 8 1017.6 1017.6 0.0
19/07:00am 11.8 9.2 9.2 84 1.3 SW 13 15 7 8 1017.4 1017.4 0.0
19/06:30am 11.7 8.9 8.7 82 1.5 SW 13 15 7 8 1017.0 1017.0 0.0
19/06:00am 12.7 10.5 9.3 80 1.7 S 11 15 6 8 1016.5 1016.5 0.0
19/05:30am 11.4 10.3 10.0 91 0.7 S 6 9 3 5 1016.0 1016.0 0.0
19/05:00am 12.3 12.2 10.9 91 0.7 SW 2 7 1 4 1015.6 1015.6 0.0
19/04:30am 12.4 11.5 10.8 90 0.8 WNW 6 7 3 4 1015.4 1015.4 0.0
19/04:00am 12.6 11.0 10.3 86 1.2 SW 9 11 5 6 1015.0 1015.0 0.0
19/03:30am 12.8 11.3 10.5 86 1.2 SW 9 13 5 7 1014.8 1014.8 0.0
19/03:00am 13.5 11.4 11.2 86 1.2 SW 13 15 7 8 1014.7 1014.7 0.0
19/02:30am 14.3 13.2 11.8 85 1.3 S 9 13 5 7 1014.8 1014.8 0.0
19/02:00am 13.6 12.3 12.5 93 0.6 S 11 13 6 7 1014.9 1014.9 0.0
19/01:30am 13.5 12.6 12.6 94 0.5 SW 9 11 5 6 1015.1 1015.1 0.0
19/01:00am 14.2 14.1 13.4 95 0.4 WSW 6 9 3 5 1015.2 1015.2 0.0
19/12:30am 14.8 14.7 13.8 94 0.6 W 7 9 4 5 1015.3 1015.3 0.0
19/12:00am 15.5 15.6 14.4 93 0.6 W 7 9 4 5 1015.3 1015.3 0.0
 
Date/Time
EST
Temp
°C
App
Temp
°C
Dew
Point
°C
Rel
Hum
%
Delta-T
°C
Wind Press
QNH
hPa
Press
MSL
hPa
Rain since
9am
mm
Dir  Spd
km/h
Gust
km/h
Spd
kts
Gust
kts
18/11:30pm 15.3 15.3 14.3 94 0.6 WSW 7 9 4 5 1015.7 1015.7 0.0

Other formats

Comma delimited format used in spreadsheet applications
http://www.bom.gov.au/fwo/IDQ60801/IDQ60801.95367.axf

JavaScript Object Notation format (JSON) in row-major order
http://www.bom.gov.au/fwo/IDQ60801/IDQ60801.95367.json

Data quality

Most of these data are generated automatically and are frequently updated. Quality checks on data are not normally performed. It is possible for incorrect values to appear. Refer to information at About Latest Weather Observations and please check the disclaimer before using these data.